Rechercher aéroport 
image banner adimage banner ad
image banner ad

FQPB - Pemba / National

Situé à Pemba, Mozambique

ICAO - FQPB, IATA - POL

Données fournies par Airmate  

Information générale

Coordonnées: S12°59'30" E40°31'27"
Élévation : 331 feet MSL.
 
Voir autres Aéroports à Cabo Delgado Province

Données opérationnelles

Accessible au public
Heure actuelle UTC:
Heure actuelle locale:
Météo
METAR: FQPB 230500Z 20013KT 9999 FEW020 26/22 Q1016
TAF: TAF FQPB 222200Z 2300/2400 17007KT 9999 BKN020 TX30/2313Z TN22/2303Z BECMG 2306/2308 11008KT BECMG 2319/2321 16006KT
Voir NOTAMs / SUP AIP / TFR affectant cet aéroport [VIEW]
Fréquences de communication: [VIEW]

Pistes:

Identifiant RWYQFULongueur (ft)Largeur (ft)SurfaceLDA (ft)
0878°262598ASP
2600
175906148
355906148

Coordonnées de l'aéroport

Adresse: Pemba Mozambique

Vue satellite de FQPB